Time;durP1;ratioP1;P1;durP2;ratioP2;P2;SDS_P1;SDS_P2;PMS_P1;PMS_P2;Temp;Humidity;BMP_temperature;BMP_pressure;BME280_temperature;BME280_humidity;BME280_pressure;Samples;Min_cycle;Max_cycle;Signal;HPM_P1;HPM_P2
2022/01/11 00:01:52;;;;;;;42.45;17.38;;;;;;;-0.25;100.00;101850.66;4995403;28;20108;-69
2022/01/11 00:04:36;;;;;;;;;;;;;;;-0.26;100.00;101843.69;4981125;28;20418;-70
2022/01/11 00:07:22;;;;;;;38.78;16.17;;;;;;;-0.28;100.00;101848.09;4980882;28;19944;-70
2022/01/11 00:10:09;;;;;;;49.45;19.35;;;;;;;-0.31;100.00;101848.19;4995447;28;20178;-70
2022/01/11 00:12:53;;;;;;;37.55;17.52;;;;;;;-0.38;100.00;101854.47;4980850;28;20069;-70
2022/01/11 00:15:38;;;;;;;40.33;16.58;;;;;;;-0.38;100.00;101852.72;4967029;28;20054;-70
2022/01/11 00:18:21;;;;;;;;;;;;;;;-0.42;100.00;101848.44;4995849;28;20144;-70
2022/01/11 00:21:05;;;;;;;35.75;14.35;;;;;;;-0.35;100.00;101849.16;4995003;28;19920;-70
2022/01/11 00:26:52;;;;;;;32.63;14.40;;;;;;;-0.31;100.00;101854.28;4995234;28;20045;-69
2022/01/11 00:29:44;;;;;;;32.50;15.68;;;;;;;-0.24;100.00;101855.00;4966573;28;20092;-69
2022/01/11 00:32:38;;;;;;;34.20;17.52;;;;;;;-0.15;100.00;101847.75;4995328;28;20100;-70
2022/01/11 00:35:27;;;;;;;38.05;16.02;;;;;;;-0.10;100.00;101848.50;4981910;28;20053;-70
2022/01/11 00:38:17;;;;;;;36.85;16.73;;;;;;;-0.12;100.00;101854.69;4981135;28;20169;-70
2022/01/11 00:41:05;;;;;;;29.85;16.17;;;;;;;-0.11;100.00;101848.53;4994552;28;20042;-70
2022/01/11 00:43:49;;;;;;;36.30;17.88;;;;;;;-0.06;100.00;101851.00;4980273;28;20056;-70
2022/01/11 00:46:33;;;;;;;;;;;;;;;-0.12;100.00;101852.91;4966901;28;20133;-70
2022/01/11 00:49:17;;;;;;;42.58;17.15;;;;;;;-0.11;100.00;101856.41;4980101;28;20269;-70
2022/01/11 00:52:01;;;;;;;38.83;17.20;;;;;;;-0.13;100.00;101852.97;4979790;28;20105;-70
2022/01/11 00:54:46;;;;;;;33.40;15.95;;;;;;;-0.16;100.00;101853.03;4980004;28;20132;-70
2022/01/11 00:57:29;;;;;;;;;;;;;;;-0.25;100.00;101863.78;4995091;28;20177;-70
2022/01/11 01:00:14;;;;;;;34.35;14.52;;;;;;;-0.33;100.00;101861.31;4965975;28;19921;-69
2022/01/11 01:02:58;;;;;;;32.53;14.75;;;;;;;-0.36;100.00;101855.28;4994539;28;20482;-70
2022/01/11 01:05:42;;;;;;;28.50;14.23;;;;;;;-0.37;100.00;101853.56;4979641;28;20053;-70
2022/01/11 01:08:27;;;;;;;32.15;15.48;;;;;;;-0.37;100.00;101861.44;4979847;28;20049;-70
2022/01/11 01:11:11;;;;;;;33.17;15.55;;;;;;;-0.45;100.00;101866.00;4994307;28;20410;-70
2022/01/11 01:13:55;;;;;;;;;;;;;;;-0.52;100.00;101865.28;4995032;28;20398;-70
2022/01/11 01:16:40;;;;;;;28.30;11.77;;;;;;;-0.54;100.00;101882.78;4979126;28;19924;-70
2022/01/11 01:19:27;;;;;;;28.05;15.00;;;;;;;-0.60;100.00;101877.72;4979419;28;20418;-70
2022/01/11 01:22:11;;;;;;;37.90;15.10;;;;;;;-0.62;100.00;101870.78;4966228;28;20049;-70
2022/01/11 01:24:55;;;;;;;32.35;15.73;;;;;;;-0.66;100.00;101879.63;4979424;28;20542;-70
2022/01/11 01:27:39;;;;;;;34.53;15.57;;;;;;;-0.72;100.00;101883.22;4965526;28;20129;-70
2022/01/11 01:30:23;;;;;;;;;;;;;;;-0.76;100.00;101880.72;4994415;28;20561;-70
2022/01/11 01:33:07;;;;;;;38.20;15.85;;;;;;;-0.75;100.00;101888.53;4993991;28;19920;-70
2022/01/11 01:35:57;;;;;;;38.55;16.23;;;;;;;-0.75;100.00;101878.06;4979154;28;20049;-70
2022/01/11 01:38:41;;;;;;;36.78;16.67;;;;;;;-0.72;100.00;101884.97;4979828;28;20148;-70
2022/01/11 01:41:25;;;;;;;40.67;16.70;;;;;;;-0.72;100.00;101895.47;4978765;28;20120;-70
2022/01/11 01:44:10;;;;;;;40.60;16.60;;;;;;;-0.70;100.00;101889.31;4993693;28;20053;-71
2022/01/11 01:46:54;;;;;;;39.08;17.00;;;;;;;-0.71;100.00;101889.31;4978996;28;20410;-69
2022/01/11 01:49:39;;;;;;;;;;;;;;;-0.75;100.00;101900.78;4978971;28;20057;-69
2022/01/11 01:52:24;;;;;;;34.90;15.63;;;;;;;-0.74;100.00;101887.63;4965516;28;19964;-70
2022/01/11 01:55:08;;;;;;;31.13;14.80;;;;;;;-0.76;100.00;101893.81;4993882;28;20061;-70
2022/01/11 01:57:52;;;;;;;34.05;16.10;;;;;;;-0.72;100.00;101901.53;4978871;28;20045;-71
2022/01/11 02:00:42;;;;;;;;;;;;;;;-0.62;100.00;101903.06;4965410;28;20045;-70
2022/01/11 02:03:26;;;;;;;39.67;15.63;;;;;;;-0.52;100.00;101895.88;4979365;28;19924;-71
2022/01/11 02:06:18;;;;;;;34.10;15.43;;;;;;;-0.55;100.00;101891.56;4965182;28;20062;-71
2022/01/11 02:09:03;;;;;;;33.75;16.20;;;;;;;-0.52;100.00;101895.88;4978730;28;20053;-70
2022/01/11 02:11:47;;;;;;;31.73;15.88;;;;;;;-0.48;100.00;101892.25;4978537;28;20045;-70
2022/01/11 02:14:31;;;;;;;32.30;16.85;;;;;;;-0.48;100.00;101897.50;4965013;28;20133;-68
2022/01/11 02:17:15;;;;;;;;;;;;;;;-0.43;100.00;101900.88;4993597;28;20053;-69
2022/01/11 02:19:59;;;;;;;31.33;15.60;;;;;;;-0.36;100.00;101902.44;4993357;28;19964;-69
2022/01/11 02:22:43;;;;;;;39.60;16.17;;;;;;;-0.25;100.00;101900.47;4978338;28;20049;-69
2022/01/11 02:25:27;;;;;;;;;;;;;;;-0.24;100.00;101905.63;4979024;28;20574;-69
2022/01/11 02:28:16;;;;;;;27.38;12.65;;;;;;;-0.31;100.00;101897.97;4978565;28;20417;-69
2022/01/11 02:31:03;;;;;;;38.03;17.98;;;;;;;-0.37;100.00;101901.59;4982298;28;20425;-69
2022/01/11 02:33:49;;;;;;;41.25;17.33;;;;;;;-0.31;100.00;101903.22;4982691;28;20173;-70
2022/01/11 02:36:35;;;;;;;40.45;18.45;;;;;;;-0.22;100.00;101895.13;4982546;28;20053;-70
2022/01/11 02:39:19;;;;;;;40.47;17.38;;;;;;;-0.25;100.00;101900.47;4997438;28;20169;-70
2022/01/11 02:42:03;;;;;;;;;;;;;;;-0.16;100.00;101900.19;4997312;28;20563;-70
2022/01/11 02:44:47;;;;;;;37.97;15.30;;;;;;;-0.12;100.00;101907.13;4982468;28;20313;-70
2022/01/11 02:47:31;;;;;;;;;;;;;;;-0.11;100.00;101908.84;4997255;28;20057;-70
2022/01/11 02:50:16;;;;;;;33.25;16.10;;;;;;;-0.02;100.00;101907.69;4996661;28;20392;-70
2022/01/11 02:53:00;;;;;;;33.72;15.65;;;;;;;0.01;100.00;101920.72;4982193;28;20041;-70
2022/01/11 02:55:44;;;;;;;38.53;16.10;;;;;;;0.04;100.00;101907.53;4982075;28;20502;-70
2022/01/11 02:58:28;;;;;;;36.83;17.27;;;;;;;0.09;100.00;101915.28;4982169;28;20053;-70
2022/01/11 03:01:12;;;;;;;;;;;;;;;0.21;100.00;101907.13;4982345;28;20064;-69
2022/01/11 03:03:58;;;;;;;35.03;14.95;;;;;;;0.17;100.00;101910.72;4996819;28;20380;-70
2022/01/11 03:06:42;;;;;;;41.15;17.67;;;;;;;0.25;100.00;101908.75;4981992;28;20485;-70
2022/01/11 03:09:29;;;;;;;;;;;;;;;0.28;100.00;101909.53;4982065;28;20073;-70
2022/01/11 03:12:13;;;;;;;39.97;16.35;;;;;;;0.29;100.00;101908.63;4996899;28;19971;-71
2022/01/11 03:14:57;;;;;;;;;;;;;;;0.36;100.00;101899.72;4982108;28;20509;-70
2022/01/11 03:17:41;;;;;;;36.05;16.02;;;;;;;0.30;100.00;101902.47;4981555;28;20433;-70
2022/01/11 03:20:25;;;;;;;;;;;;;;;0.24;100.00;101896.53;4981882;28;20097;-68
2022/01/11 03:23:10;;;;;;;38.22;17.15;;;;;;;0.13;100.00;101894.19;4996131;28;19927;-71
2022/01/11 03:25:53;;;;;;;35.55;15.43;;;;;;;0.10;100.00;101903.88;4996425;28;20140;-70
2022/01/11 03:28:37;;;;;;;27.48;13.68;;;;;;;0.01;100.00;101907.63;4996363;28;20140;-70
2022/01/11 03:31:23;;;;;;;28.27;14.75;;;;;;;-0.01;100.00;101911.16;4981237;28;20077;-71
2022/01/11 03:34:07;;;;;;;36.50;15.38;;;;;;;0.03;100.00;101912.84;4995997;28;20049;-68
2022/01/11 03:36:51;;;;;;;;;;;;;;;0.06;100.00;101904.88;4996400;28;20052;-69
2022/01/11 03:39:35;;;;;;;30.08;13.95;;;;;;;0.06;100.00;101908.38;4980780;28;19920;-70
2022/01/11 03:42:19;;;;;;;33.38;14.60;;;;;;;0.06;100.00;101923.22;4995806;28;20134;-71
2022/01/11 03:45:03;;;;;;;;;;;;;;;-0.04;100.00;101911.25;4996434;28;20518;-67
2022/01/11 03:47:49;;;;;;;33.03;15.18;;;;;;;-0.10;100.00;101918.41;4995988;28;19968;-69
2022/01/11 03:50:39;;;;;;;32.42;15.40;;;;;;;-0.19;100.00;101916.88;4981284;28;20053;-67
2022/01/11 03:53:32;;;;;;;36.70;15.48;;;;;;;-0.25;100.00;101917.03;4980926;28;20118;-71
2022/01/11 03:56:22;;;;;;;31.40;15.27;;;;;;;-0.28;100.00;101913.63;4982258;28;20470;-70
2022/01/11 03:59:07;;;;;;;29.83;15.10;;;;;;;-0.25;100.00;101916.19;4995824;28;20124;-71
2022/01/11 04:01:52;;;;;;;31.50;15.63;;;;;;;-0.25;100.00;101913.56;4981093;28;20152;-71
2022/01/11 04:04:36;;;;;;;28.73;13.98;;;;;;;-0.29;100.00;101915.38;4995668;28;20505;-70
2022/01/11 04:07:22;;;;;;;34.47;14.27;;;;;;;-0.38;100.00;101915.59;4995650;28;20045;-70
2022/01/11 04:10:08;;;;;;;28.60;14.60;;;;;;;-0.47;100.00;101925.41;4980743;28;20123;-70
2022/01/11 04:12:53;;;;;;;30.45;15.18;;;;;;;-0.45;100.00;101923.66;4995505;28;20049;-71
2022/01/11 04:15:37;;;;;;;30.60;13.98;;;;;;;-0.55;100.00;101932.63;4995375;28;20064;-69
2022/01/11 04:18:20;;;;;;;;;;;;;;;-0.65;100.00;101925.88;4995837;28;20053;-69
2022/01/11 04:21:05;;;;;;;24.77;11.77;;;;;;;-0.66;100.00;101925.00;4980385;28;20309;-70
2022/01/11 04:23:48;;;;;;;;;;;;;;;-0.64;100.00;101932.81;4995486;28;20042;-70
2022/01/11 04:26:32;;;;;;;41.65;16.67;;;;;;;-0.59;100.00;101941.41;4980480;28;19925;-71
2022/01/11 04:29:16;;;;;;;45.67;18.73;;;;;;;-0.53;100.00;101942.13;4980466;28;20053;-71
2022/01/11 04:32:00;;;;;;;;;;;;;;;-0.47;100.00;101951.63;4995665;28;20532;-69
2022/01/11 04:34:44;;;;;;;49.83;18.52;;;;;;;-0.43;100.00;101946.28;4980376;28;19967;-70
2022/01/11 04:37:28;;;;;;;53.20;19.63;;;;;;;-0.35;100.00;101953.97;4980123;28;20180;-69
2022/01/11 04:40:12;;;;;;;;;;;;;;;-0.26;100.00;101956.38;4980525;28;20057;-69
2022/01/11 04:42:56;;;;;;;48.88;20.25;;;;;;;-0.19;100.00;101963.19;4980139;28;19924;-71
2022/01/11 04:45:40;;;;;;;52.22;20.77;;;;;;;-0.10;100.00;101963.84;4979905;28;20073;-70
2022/01/11 04:48:24;;;;;;;62.80;22.73;;;;;;;-0.02;100.00;101973.25;4994893;28;20041;-69
2022/01/11 04:51:08;;;;;;;59.83;22.45;;;;;;;0.07;100.00;101962.53;4965444;28;20497;-70
2022/01/11 04:53:51;;;;;;;;;;;;;;;0.16;100.00;101967.56;4980428;28;20391;-67
2022/01/11 04:56:36;;;;;;;49.80;21.67;;;;;;;0.25;100.00;101971.69;4979680;28;19952;-69
2022/01/11 04:59:20;;;;;;;57.53;23.20;;;;;;;0.31;100.00;101980.28;4979777;28;20544;-70
2022/01/11 05:02:04;;;;;;;;;;;;;;;0.34;100.00;101976.72;4980165;28;20057;-69
2022/01/11 05:04:47;;;;;;;74.45;24.95;;;;;;;0.37;100.00;101977.50;4994866;28;19988;-71
2022/01/11 05:07:31;;;;;;;59.72;23.05;;;;;;;0.50;100.00;101980.66;4994531;28;20085;-69
2022/01/11 05:10:15;;;;;;;51.25;20.88;;;;;;;0.59;100.00;101986.53;4994159;28;20057;-70
2022/01/11 05:12:59;;;;;;;;;;;;;;;0.67;100.00;101973.19;4966219;28;20497;-70
2022/01/11 05:15:43;;;;;;;48.40;19.77;;;;;;;0.80;100.00;101972.84;4994394;28;20301;-69
2022/01/11 05:18:29;;;;;;;47.35;20.00;;;;;;;0.88;100.00;101978.75;4979624;28;20145;-68
2022/01/11 05:21:13;;;;;;;47.80;22.42;;;;;;;0.81;100.00;101984.19;4979230;28;20465;-71
2022/01/11 05:23:57;;;;;;;50.95;22.58;;;;;;;0.83;100.00;101979.78;4979494;28;20104;-70
2022/01/11 05:26:41;;;;;;;;;;;;;;;0.89;100.00;101979.59;4994627;28;20049;-70
2022/01/11 05:29:25;;;;;;;45.03;20.15;;;;;;;0.89;100.00;101980.47;4993797;28;20321;-70
2022/01/11 05:32:08;;;;;;;52.47;20.50;;;;;;;1.05;100.00;101976.47;4994169;28;20498;-69
2022/01/11 05:34:52;;;;;;;;;;;;;;;1.05;100.00;101978.25;4979755;28;20057;-70
2022/01/11 05:37:36;;;;;;;42.42;18.50;;;;;;;1.07;100.00;101985.16;4979226;28;19920;-70
2022/01/11 05:40:20;;;;;;;;;;;;;;;1.04;100.00;101982.63;4979561;28;20509;-70
2022/01/11 05:43:06;;;;;;;40.80;19.88;;;;;;;1.16;100.00;101995.41;4993628;28;19924;-70
2022/01/11 05:45:50;;;;;;;43.47;19.88;;;;;;;1.15;100.00;101998.13;4994333;28;20137;-70
2022/01/11 05:48:33;;;;;;;;;;;;;;;1.19;100.00;102003.22;4979601;28;20487;-70
2022/01/11 05:51:17;;;;;;;36.28;17.80;;;;;;;1.29;100.00;101988.94;4993341;28;19921;-70
2022/01/11 05:54:01;;;;;;;;;;;;;;;1.21;100.00;102006.69;4994122;28;20137;-70
2022/01/11 05:56:45;;;;;;;48.00;19.00;;;;;;;1.17;100.00;102018.16;4978988;28;19960;-70
2022/01/11 05:59:29;;;;;;;44.53;19.63;;;;;;;1.21;100.00;102014.56;4978798;28;20053;-70
2022/01/11 06:02:13;;;;;;;;;;;;;;;1.25;100.00;102020.59;4993766;28;20137;-70
2022/01/11 06:04:57;;;;;;;46.00;20.92;;;;;;;1.26;100.00;102012.63;4993612;28;20281;-70
2022/01/11 06:07:41;;;;;;;;;;;;;;;1.34;100.00;102017.69;4979202;28;20080;-70
2022/01/11 06:10:24;;;;;;;44.07;20.07;;;;;;;1.40;100.00;102017.50;4978522;28;20246;-70
2022/01/11 06:13:09;;;;;;;;;;;;;;;1.51;100.00;102024.19;4979290;28;20771;-70
2022/01/11 06:15:52;;;;;;;40.20;19.92;;;;;;;1.46;100.00;102023.44;4993413;28;20036;-70
2022/01/11 06:18:36;;;;;;;42.63;18.42;;;;;;;1.45;100.00;102026.13;4979019;28;20085;-70
2022/01/11 06:21:21;;;;;;;44.33;19.40;;;;;;;1.41;100.00;102030.59;4978517;28;20053;-70
2022/01/11 06:24:05;;;;;;;41.42;18.17;;;;;;;1.42;100.00;102032.34;4978623;28;20045;-70
2022/01/11 06:26:49;;;;;;;49.22;20.08;;;;;;;1.39;100.00;102032.44;4993429;28;20045;-69
2022/01/11 06:29:33;;;;;;;45.58;19.08;;;;;;;1.40;100.00;102043.78;4978798;28;20180;-71
2022/01/11 06:32:17;;;;;;;46.15;19.98;;;;;;;1.37;100.00;102033.38;4978538;28;20060;-68
2022/01/11 06:35:01;;;;;;;;;;;;;;;1.37;100.00;102036.84;4993704;28;20053;-70
2022/01/11 06:37:45;;;;;;;41.17;19.00;;;;;;;1.39;100.00;102037.69;4978334;28;20032;-69
2022/01/11 06:40:29;;;;;;;48.38;19.45;;;;;;;1.40;100.00;102039.41;4978424;28;20414;-70
2022/01/11 06:43:13;;;;;;;39.25;18.33;;;;;;;1.43;100.00;102039.31;4978188;28;20049;-68
2022/01/11 06:45:57;;;;;;;40.80;18.88;;;;;;;1.41;100.00;102051.63;4993493;28;20105;-70
2022/01/11 06:48:41;;;;;;;;;;;;;;;1.39;100.00;102042.06;4979093;28;20112;-70
2022/01/11 06:51:25;;;;;;;39.80;17.80;;;;;;;1.52;100.00;102044.28;4992727;28;20005;-70
2022/01/11 06:54:09;;;;;;;46.50;20.70;;;;;;;1.50;100.00;102050.50;4993151;28;20049;-70
2022/01/11 06:56:53;;;;;;;;;;;;;;;1.48;100.00;102047.94;4993787;28;20505;-71
2022/01/11 06:59:37;;;;;;;41.08;19.42;;;;;;;1.47;100.00;102051.44;4978101;28;20400;-70
2022/01/11 07:02:21;;;;;;;48.28;19.27;;;;;;;1.49;100.00;102054.03;4978307;28;20122;-71
2022/01/11 07:05:06;;;;;;;;;;;;;;;1.53;100.00;102056.53;4978721;28;20467;-69
2022/01/11 07:07:50;;;;;;;44.38;19.02;;;;;;;1.58;100.00;102059.88;4978039;28;19925;-71
2022/01/11 07:10:34;;;;;;;47.65;19.13;;;;;;;1.56;100.00;102058.22;4978260;28;20104;-71
2022/01/11 07:13:18;;;;;;;46.22;20.65;;;;;;;1.59;100.00;102059.00;4992741;28;20536;-70
2022/01/11 07:16:02;;;;;;;46.08;20.38;;;;;;;1.59;100.00;102066.88;4995783;28;20045;-70
2022/01/11 07:18:47;;;;;;;;;;;;;;;1.60;100.00;102071.22;4997064;28;20096;-71
2022/01/11 07:21:34;;;;;;;47.47;19.88;;;;;;;1.56;100.00;102074.81;4968557;28;19964;-71
2022/01/11 07:24:19;;;;;;;49.53;19.58;;;;;;;1.59;100.00;102077.41;4982396;28;20077;-71
2022/01/11 07:27:02;;;;;;;;;;;;;;;1.62;100.00;102085.19;4968350;28;20410;-69
2022/01/11 07:29:47;;;;;;;43.47;21.15;;;;;;;1.68;100.00;102086.78;4981443;28;20298;-70
2022/01/11 07:32:33;;;;;;;50.67;22.17;;;;;;;1.72;100.00;102085.75;4981408;28;20045;-71
2022/01/11 07:35:17;;;;;;;47.45;19.95;;;;;;;1.69;100.00;102092.00;4981240;28;20057;-70
2022/01/11 07:38:01;;;;;;;43.15;19.25;;;;;;;1.70;100.00;102098.97;4981494;28;20423;-70
2022/01/11 07:40:45;;;;;;;38.85;17.95;;;;;;;1.74;100.00;102103.22;4995937;28;20054;-71
2022/01/11 07:43:29;;;;;;;44.28;18.35;;;;;;;1.74;100.00;102103.22;4995861;28;20454;-70
2022/01/11 07:46:13;;;;;;;;;;;;;;;1.79;100.00;102109.22;4981703;28;20096;-68
2022/01/11 07:48:59;;;;;;;31.88;16.73;;;;;;;1.88;100.00;102110.72;4996065;28;19921;-70
2022/01/11 07:51:43;;;;;;;47.08;19.38;;;;;;;1.87;100.00;102122.97;4981158;28;20045;-71
2022/01/11 07:54:27;;;;;;;37.80;18.13;;;;;;;1.90;100.00;102119.41;4995974;28;20081;-71
2022/01/11 07:57:10;;;;;;;33.58;17.42;;;;;;;1.89;100.00;102123.84;4995865;28;20501;-70
2022/01/11 07:59:54;;;;;;;;;;;;;;;1.97;100.00;102127.06;4981345;28;20553;-69
2022/01/11 08:02:38;;;;;;;38.55;18.58;;;;;;;1.96;100.00;102127.97;4995712;28;19925;-71
2022/01/11 08:05:23;;;;;;;41.75;18.10;;;;;;;1.97;100.00;102126.22;4980987;28;20053;-71
2022/01/11 08:08:06;;;;;;;88.55;41.97;;;;;;;1.94;100.00;102124.53;4995892;28;20052;-70
2022/01/11 08:10:50;;;;;;;;;;;;;;;2.01;100.00;102133.97;4967349;28;20466;-71
2022/01/11 08:13:34;;;;;;;39.83;20.73;;;;;;;2.08;100.00;102132.88;4967292;28;20278;-70
2022/01/11 08:16:18;;;;;;;36.00;18.42;;;;;;;2.12;100.00;102131.88;4995452;28;20133;-70
2022/01/11 08:19:02;;;;;;;30.42;18.10;;;;;;;2.21;100.00;102128.97;4995405;28;20087;-71
2022/01/11 08:21:47;;;;;;;;;;;;;;;2.31;100.00;102130.41;4995970;28;20100;-69
2022/01/11 08:24:31;;;;;;;43.53;22.67;;;;;;;2.26;100.00;102132.31;4995263;28;19960;-69
2022/01/11 08:27:17;;;;;;;41.20;18.92;;;;;;;2.39;100.00;102132.81;4967368;28;20056;-70
2022/01/11 08:30:03;;;;;;;40.00;17.70;;;;;;;2.45;100.00;102136.09;4980888;28;20053;-70
2022/01/11 08:32:47;;;;;;;39.92;21.38;;;;;;;2.43;100.00;102135.28;4995424;28;20069;-67
2022/01/11 08:35:32;;;;;;;39.17;22.63;;;;;;;2.53;100.00;102136.72;4995476;28;20521;-70
2022/01/11 08:38:16;;;;;;;33.25;18.52;;;;;;;2.57;100.00;102135.72;4980132;28;20065;-70
2022/01/11 08:41:00;;;;;;;34.15;16.95;;;;;;;2.60;100.00;102130.34;4980482;28;20088;-70
2022/01/11 08:43:44;;;;;;;36.00;18.67;;;;;;;2.67;100.00;102137.13;4994734;28;20049;-69
2022/01/11 08:46:28;;;;;;;34.47;18.38;;;;;;;2.69;100.00;102140.56;4994877;28;20520;-71
2022/01/11 08:49:13;;;;;;;;;;;;;;;2.68;100.00;102130.94;4980428;28;20107;-70
2022/01/11 08:51:57;;;;;;;32.15;16.83;;;;;;;2.70;100.00;102132.63;4980482;28;19920;-70
2022/01/11 08:54:41;;;;;;;;;;;;;;;2.90;100.00;102129.31;4995137;28;20565;-70
2022/01/11 08:57:25;;;;;;;33.42;17.67;;;;;;;2.91;100.00;102137.19;4994563;28;20016;-71
2022/01/11 09:00:16;;;;;;;39.10;17.85;;;;;;;3.03;100.00;102130.66;4994561;28;20129;-71
2022/01/11 09:03:00;;;;;;;35.97;17.13;;;;;;;3.11;100.00;102131.22;4980344;28;20069;-71
2022/01/11 09:05:44;;;;;;;32.80;17.08;;;;;;;3.12;100.00;102136.47;4994433;28;20120;-70
2022/01/11 09:08:28;;;;;;;32.15;16.58;;;;;;;3.27;100.00;102130.69;4965953;28;20053;-71
2022/01/11 09:11:12;;;;;;;37.13;18.10;;;;;;;3.29;100.00;102125.34;4994397;28;20053;-71
2022/01/11 09:13:56;;;;;;;30.70;18.40;;;;;;;3.31;100.00;102129.66;4965863;28;20047;-71
2022/01/11 09:16:40;;;;;;;33.85;16.27;;;;;;;3.53;100.00;102133.22;4979534;28;20402;-70
2022/01/11 09:19:24;;;;;;;32.75;17.58;;;;;;;3.49;100.00;102136.03;4979376;28;20053;-70
2022/01/11 09:22:09;;;;;;;36.20;16.50;;;;;;;3.62;100.00;102139.94;4994100;28;20133;-70
2022/01/11 09:24:55;;;;;;;39.28;22.88;;;;;;;3.54;100.00;102140.22;4979496;28;20053;-70
2022/01/11 09:27:39;;;;;;;37.40;19.42;;;;;;;3.53;100.00;102142.94;4979573;28;20517;-70
2022/01/11 09:30:23;;;;;;;31.75;17.58;;;;;;;3.71;100.00;102136.97;4979308;28;20072;-70
2022/01/11 09:33:06;;;;;;;33.40;18.30;;;;;;;3.78;100.00;102143.75;4965794;28;20201;-70
2022/01/11 09:35:51;;;;;;;28.38;16.88;;;;;;;3.77;100.00;102139.41;4994314;28;20053;-70
2022/01/11 09:38:35;;;;;;;31.63;17.75;;;;;;;3.78;100.00;102143.75;4993386;28;20109;-70
2022/01/11 09:41:19;;;;;;;28.85;16.25;;;;;;;3.78;100.00;102135.84;4993726;28;20045;-70
2022/01/11 09:44:03;;;;;;;;;;;;;;;3.89;100.00;102146.84;4994358;28;20100;-70
2022/01/11 09:46:47;;;;;;;31.93;18.97;;;;;;;3.95;100.00;102154.56;4979535;28;19943;-70
2022/01/11 09:49:30;;;;;;;;;;;;;;;3.85;100.00;102154.03;4994059;28;20081;-70
2022/01/11 09:52:16;;;;;;;33.45;16.77;;;;;;;3.96;100.00;102153.63;4980548;28;19925;-69
2022/01/11 09:55:00;;;;;;;36.25;17.35;;;;;;;3.96;100.00;102151.84;4978644;28;20434;-70
2022/01/11 09:57:44;;;;;;;31.23;18.10;;;;;;;3.95;100.00;102152.75;4979076;28;20053;-69
2022/01/11 10:00:28;;;;;;;;;;;;;;;3.92;100.00;102154.66;4993828;28;20049;-68
2022/01/11 10:03:13;;;;;;;36.28;20.58;;;;;;;4.02;100.00;102158.66;4993920;28;19925;-69
2022/01/11 10:06:14;;;;;;;35.40;17.85;;;;;;;4.00;100.00;102163.16;4993439;28;20422;-69
2022/01/11 10:09:19;;;;;;;34.53;20.48;;;;;;;4.04;100.00;102164.78;4993575;28;20504;-70
2022/01/11 10:12:08;;;;;;;37.80;21.38;;;;;;;4.08;100.00;102164.56;4978926;28;20050;-69
2022/01/11 10:14:56;;;;;;;30.17;16.23;;;;;;;4.17;100.00;102160.75;4978552;28;20517;-70
2022/01/11 10:17:43;;;;;;;36.92;16.50;;;;;;;4.25;100.00;102159.53;4978935;28;20053;-69
2022/01/11 10:20:28;;;;;;;27.13;15.80;;;;;;;4.47;100.00;102159.56;4978393;28;20069;-69
2022/01/11 10:23:13;;;;;;;33.33;16.83;;;;;;;4.51;100.00;102153.22;4978671;28;20134;-70
2022/01/11 10:25:58;;;;;;;31.17;17.38;;;;;;;4.62;100.00;102159.81;4965101;28;20133;-71
2022/01/11 10:28:41;;;;;;;;;;;;;;;4.80;100.00;102155.56;4979337;28;20069;-70
2022/01/11 10:31:34;;;;;;;25.33;15.73;;;;;;;4.95;100.00;102156.63;4978659;28;20380;-71
2022/01/11 10:34:27;;;;;;;28.10;14.32;;;;;;;4.98;100.00;102156.53;4978435;28;20037;-71
2022/01/11 10:37:11;;;;;;;30.13;15.30;;;;;;;5.12;100.00;102148.88;4964954;28;20113;-71
2022/01/11 10:40:08;;;;;;;28.92;16.45;;;;;;;5.28;100.00;102155.25;4993231;28;20049;-69
2022/01/11 10:42:57;;;;;;;28.77;15.48;;;;;;;5.45;100.00;102152.72;4993190;28;20061;-71
2022/01/11 10:45:46;;;;;;;24.67;14.57;;;;;;;5.54;100.00;102147.03;4965048;28;20064;-70
2022/01/11 10:48:37;;;;;;;28.88;17.60;;;;;;;5.65;100.00;102150.06;4993247;28;20058;-70
2022/01/11 10:51:21;;;;;;;25.30;15.40;;;;;;;5.70;100.00;102150.72;4981546;28;20084;-71
2022/01/11 10:54:10;;;;;;;33.78;17.55;;;;;;;5.72;100.00;102148.88;4982336;28;20461;-71
2022/01/11 10:56:54;;;;;;;30.98;15.85;;;;;;;5.89;100.00;102149.00;4982172;28;20113;-70
2022/01/11 10:59:38;;;;;;;29.30;16.17;;;;;;;5.82;100.00;102151.97;4996830;28;20108;-70
2022/01/11 11:02:26;;;;;;;26.95;15.93;;;;;;;5.94;100.00;102147.00;4996825;28;20418;-71
2022/01/11 11:05:23;;;;;;;31.42;17.17;;;;;;;6.02;100.00;102150.16;4982106;28;20117;-71
2022/01/11 11:08:11;;;;;;;26.00;14.32;;;;;;;6.38;100.00;102158.19;4996785;28;20093;-71
2022/01/11 11:10:55;;;;;;;26.50;14.88;;;;;;;6.55;100.00;102159.09;4981640;28;20056;-70
2022/01/11 11:13:40;;;;;;;;;;;;;;;6.58;100.00;102161.59;4996821;28;20052;-70
2022/01/11 11:16:26;;;;;;;;;;;;;;;6.65;100.00;102159.53;4997280;28;19920;-70
2022/01/11 11:19:09;;;;;;;23.67;13.98;;;;;;;6.70;100.00;102154.84;4981886;28;20380;-70
2022/01/11 11:21:53;;;;;;;25.25;13.38;;;;;;;6.97;100.00;102154.34;4996492;28;20505;-71
2022/01/11 11:24:37;;;;;;;30.63;14.25;;;;;;;7.06;100.00;102159.19;4981640;28;20177;-71
2022/01/11 11:27:23;;;;;;;25.20;14.25;;;;;;;7.22;100.00;102149.56;4981632;28;20049;-69
2022/01/11 11:30:07;;;;;;;27.67;14.05;;;;;;;7.52;100.00;102153.28;4981298;28;20057;-71
2022/01/11 11:32:52;;;;;;;21.65;13.52;;;;;;;7.65;100.00;102154.34;4996245;28;20093;-71
2022/01/11 11:35:36;;;;;;;21.95;14.00;;;;;;;7.74;100.00;102148.56;4981820;28;20049;-70
2022/01/11 11:38:21;;;;;;;25.58;14.15;;;;;;;7.91;100.00;102152.03;4981745;28;20451;-71
2022/01/11 11:41:05;;;;;;;24.75;12.45;;;;;;;8.04;99.90;102158.38;4995861;28;20049;-71
2022/01/11 11:44:10;;;;;;;22.23;13.25;;;;;;;8.07;97.23;102152.94;4967722;28;20057;-71
2022/01/11 11:46:59;;;;;;;21.70;13.43;;;;;;;8.41;96.51;102150.16;4995898;28;20053;-71
2022/01/11 11:49:53;;;;;;;26.05;14.50;;;;;;;8.58;95.06;102154.53;4967531;28;20054;-71
2022/01/11 11:52:38;;;;;;;22.00;13.93;;;;;;;8.55;94.29;102146.75;4981156;28;20088;-71
2022/01/11 11:55:28;;;;;;;21.05;12.98;;;;;;;8.58;94.60;102143.91;4995909;28;20089;-71
2022/01/11 11:58:18;;;;;;;24.27;13.82;;;;;;;8.57;94.60;102139.53;4981174;28;20104;-69
2022/01/11 12:01:02;;;;;;;24.23;13.68;;;;;;;8.63;92.19;102141.81;4966733;28;20045;-68
2022/01/11 12:03:46;;;;;;;26.20;14.30;;;;;;;8.84;92.22;102125.50;4995472;28;20075;-70
2022/01/11 12:06:31;;;;;;;;;;;;;;;9.27;89.47;102127.38;4981372;28;20065;-70
2022/01/11 12:09:17;;;;;;;;;;;;;;;9.67;86.69;102118.69;4967749;28;19968;-70
2022/01/11 12:12:02;;;;;;;21.55;11.77;;;;;;;10.01;81.55;102118.28;4995384;28;20336;-70
2022/01/11 12:14:46;;;;;;;21.60;11.32;;;;;;;10.26;82.37;102119.34;4995529;28;20057;-70
2022/01/11 12:17:30;;;;;;;21.45;12.45;;;;;;;10.87;77.71;102113.56;4995284;28;20053;-69
2022/01/11 12:20:44;;;;;;;20.75;12.05;;;;;;;11.76;73.98;102114.47;4980421;28;20094;-70
2022/01/11 12:23:34;;;;;;;17.55;11.48;;;;;;;12.27;66.96;102110.75;4980365;28;20134;-70
2022/01/11 12:26:26;;;;;;;22.48;11.60;;;;;;;11.94;66.04;102105.16;4995151;28;20045;-70
2022/01/11 12:29:11;;;;;;;15.60;10.68;;;;;;;11.88;66.53;102105.59;4995077;28;20048;-69
2022/01/11 12:32:07;;;;;;;24.25;12.10;;;;;;;11.77;68.11;102097.47;4995055;28;20410;-70
2022/01/11 12:34:54;;;;;;;18.80;11.38;;;;;;;12.09;67.89;102105.91;4980664;28;20450;-70
2022/01/11 12:37:44;;;;;;;16.90;10.85;;;;;;;11.86;67.74;102102.19;4995102;28;20129;-70
2022/01/11 12:40:29;;;;;;;18.55;10.93;;;;;;;11.60;69.31;102103.16;4980153;28;20054;-68
2022/01/11 12:43:19;;;;;;;16.17;10.85;;;;;;;11.34;67.58;102101.38;4995017;28;20093;-70
2022/01/11 12:46:11;;;;;;;16.92;10.32;;;;;;;11.47;66.82;102101.41;4980210;28;20053;-70
2022/01/11 12:48:57;;;;;;;14.32;9.45;;;;;;;12.01;65.35;102089.53;4994877;28;20490;-70